Time;durP1;ratioP1;P1;durP2;ratioP2;P2;SDS_P1;SDS_P2;PMS_P1;PMS_P2;Temp;Humidity;BMP_temperature;BMP_pressure;BME280_temperature;BME280_humidity;BME280_pressure;Samples;Min_cycle;Max_cycle;Signal;HPM_P1;HPM_P2
2021/06/06 00:00:59;;;;;;;15.97;14.37;;;13.10;99.90;;;;;;4990315;28;20199;-82
2021/06/06 00:03:31;;;;;;;19.07;14.10;;;13.00;99.90;;;;;;4989852;28;20219;-81
2021/06/06 00:06:03;;;;;;;17.57;15.30;;;13.00;99.90;;;;;;4986041;28;20769;-82
2021/06/06 00:08:31;;;;;;;19.60;15.30;;;12.90;99.90;;;;;;4989201;28;20204;-83
2021/06/06 00:11:01;;;;;;;16.57;14.90;;;12.80;99.90;;;;;;4987211;28;20203;-83
2021/06/06 00:13:30;;;;;;;16.90;15.03;;;12.90;99.90;;;;;;4990327;28;20222;-83
2021/06/06 00:15:58;;;;;;;17.53;15.27;;;12.80;99.90;;;;;;4990019;28;20208;-83
2021/06/06 00:18:26;;;;;;;18.53;14.80;;;12.70;99.90;;;;;;4992295;28;20199;-83
2021/06/06 00:20:54;;;;;;;17.60;15.80;;;12.70;99.90;;;;;;4991996;28;20214;-82
2021/06/06 00:23:22;;;;;;;16.30;14.70;;;12.60;99.90;;;;;;4992178;28;20199;-82
2021/06/06 00:25:50;;;;;;;16.33;14.63;;;12.60;99.90;;;;;;4993697;28;20266;-81
2021/06/06 00:28:19;;;;;;;17.20;15.27;;;12.50;99.90;;;;;;4996650;28;20211;-83
2021/06/06 00:30:48;;;;;;;18.43;16.10;;;12.50;99.90;;;;;;4987099;28;20230;-82
2021/06/06 00:33:16;;;;;;;19.30;15.93;;;12.50;99.90;;;;;;4997975;28;20196;-82
2021/06/06 00:35:44;;;;;;;19.50;15.93;;;12.50;99.90;;;;;;4987984;28;20431;-83
2021/06/06 00:38:11;;;;;;;20.93;16.47;;;12.50;99.90;;;;;;4992884;28;20224;-83
2021/06/06 00:40:39;;;;;;;19.53;17.17;;;12.50;99.90;;;;;;4984338;28;20297;-82
2021/06/06 00:43:08;;;;;;;23.87;19.33;;;12.50;99.90;;;;;;4986142;28;20212;-83
2021/06/06 00:45:37;;;;;;;22.37;19.77;;;12.60;99.90;;;;;;4986109;28;20235;-82
2021/06/06 00:48:08;;;;;;;23.73;19.67;;;12.70;99.90;;;;;;4987987;28;20219;-82
2021/06/06 00:50:39;;;;;;;21.77;19.50;;;12.70;99.90;;;;;;4992727;28;20262;-83
2021/06/06 00:53:13;;;;;;;21.97;19.67;;;12.70;99.90;;;;;;4996024;28;20203;-83
2021/06/06 00:55:41;;;;;;;24.10;20.70;;;12.70;99.90;;;;;;4986700;28;20230;-83
2021/06/06 00:58:12;;;;;;;24.07;19.73;;;12.70;99.90;;;;;;4987913;28;20273;-83
2021/06/06 01:00:42;;;;;;;24.63;19.93;;;12.80;99.90;;;;;;4983775;28;20244;-83
2021/06/06 01:03:12;;;;;;;22.50;19.43;;;12.90;99.90;;;;;;4991063;28;20669;-83
2021/06/06 01:05:45;;;;;;;23.67;19.97;;;12.90;99.90;;;;;;4965808;28;20207;-83
2021/06/06 01:08:15;;;;;;;21.03;18.80;;;13.00;99.90;;;;;;4989291;28;20211;-82
2021/06/06 01:10:45;;;;;;;20.53;18.33;;;13.10;99.90;;;;;;4987267;28;20234;-83
2021/06/06 01:13:19;;;;;;;19.03;17.07;;;13.00;99.90;;;;;;4993834;28;20184;-82
2021/06/06 01:15:52;;;;;;;20.90;17.90;;;13.00;99.90;;;;;;5011418;28;20225;-81
2021/06/06 01:18:25;;;;;;;19.13;17.20;;;12.90;99.90;;;;;;5008585;28;20256;-83
2021/06/06 01:21:08;;;;;;;18.63;16.30;;;12.90;99.90;;;;;;5012613;28;20200;-83
2021/06/06 01:24:06;;;;;;;18.87;16.93;;;12.90;99.90;;;;;;5008113;28;20205;-84
2021/06/06 01:26:40;;;;;;;18.13;16.37;;;12.80;99.90;;;;;;4991279;28;20196;-83
2021/06/06 01:29:17;;;;;;;18.03;16.23;;;12.70;99.90;;;;;;4995296;28;20261;-83
2021/06/06 01:31:50;;;;;;;21.30;17.73;;;12.70;99.90;;;;;;4992735;28;20212;-82
2021/06/06 01:34:21;;;;;;;18.57;16.67;;;12.70;99.90;;;;;;4995093;28;20214;-82
2021/06/06 01:36:54;;;;;;;18.80;16.87;;;12.60;99.90;;;;;;4987301;28;20224;-83
2021/06/06 01:39:25;;;;;;;20.83;18.30;;;12.60;99.90;;;;;;4990298;28;20195;-83
2021/06/06 01:41:58;;;;;;;22.47;18.30;;;12.60;99.90;;;;;;4987899;28;20771;-84
2021/06/06 01:44:29;;;;;;;24.27;19.57;;;12.80;99.90;;;;;;4991568;28;20202;-82
2021/06/06 01:47:00;;;;;;;22.17;18.43;;;12.90;99.90;;;;;;4992723;28;20488;-83
2021/06/06 01:49:30;;;;;;;20.80;18.00;;;13.10;99.90;;;;;;4988516;28;20286;-83
2021/06/06 01:52:02;;;;;;;19.57;16.90;;;13.30;99.90;;;;;;4990862;28;20387;-83
2021/06/06 01:54:35;;;;;;;16.77;15.10;;;13.40;99.90;;;;;;4965988;28;20231;-85
2021/06/06 01:57:04;;;;;;;19.47;15.00;;;13.60;99.90;;;;;;4987715;28;20191;-83
2021/06/06 01:59:35;;;;;;;20.10;15.57;;;13.60;99.90;;;;;;4988331;28;20208;-82
2021/06/06 02:02:05;;;;;;;16.47;14.60;;;13.60;99.90;;;;;;4987081;28;20224;-82
2021/06/06 02:04:34;;;;;;;16.17;14.50;;;13.60;99.90;;;;;;4990448;28;20196;-84
2021/06/06 02:07:08;;;;;;;18.47;15.07;;;13.60;99.90;;;;;;4989543;28;20274;-83
2021/06/06 02:09:43;;;;;;;16.43;14.67;;;13.50;99.90;;;;;;4989588;28;20318;-83
2021/06/06 02:12:11;;;;;;;17.07;15.13;;;13.60;99.90;;;;;;5007966;28;20230;-82
2021/06/06 02:14:42;;;;;;;16.27;14.60;;;13.70;99.90;;;;;;5016451;28;20192;-83
2021/06/06 02:17:13;;;;;;;16.07;14.40;;;13.70;99.90;;;;;;5013874;28;20716;-82
2021/06/06 02:19:44;;;;;;;16.30;14.70;;;13.60;99.90;;;;;;4998062;28;20242;-83
2021/06/06 02:22:15;;;;;;;16.50;14.80;;;13.70;99.90;;;;;;4994605;28;20529;-82
2021/06/06 02:24:45;;;;;;;17.87;14.70;;;13.60;99.90;;;;;;4989925;28;20208;-83
2021/06/06 02:27:17;;;;;;;16.67;14.97;;;13.60;99.90;;;;;;4993822;28;20235;-82
2021/06/06 02:29:55;;;;;;;16.37;14.77;;;13.50;99.90;;;;;;4993634;28;20246;-82
2021/06/06 02:32:31;;;;;;;17.30;15.17;;;13.40;99.90;;;;;;4990108;28;20301;-82
2021/06/06 02:35:08;;;;;;;19.33;15.37;;;13.40;99.90;;;;;;4989257;28;20251;-82
2021/06/06 02:37:42;;;;;;;18.23;13.93;;;13.40;99.90;;;;;;4989215;28;20692;-82
2021/06/06 02:40:19;;;;;;;18.63;14.10;;;13.50;99.90;;;;;;4989950;28;20261;-83
2021/06/06 02:42:49;;;;;;;15.30;13.43;;;13.50;99.90;;;;;;5003739;28;20203;-85
2021/06/06 02:45:21;;;;;;;18.57;13.73;;;13.50;99.90;;;;;;5010536;28;20716;-83
2021/06/06 02:47:51;;;;;;;15.03;13.63;;;13.50;99.90;;;;;;5009463;28;20531;-83
2021/06/06 02:50:25;;;;;;;15.90;13.43;;;13.60;99.90;;;;;;5012968;28;20301;-83
2021/06/06 02:52:56;;;;;;;15.90;12.60;;;13.60;99.90;;;;;;5013731;28;20258;-82
2021/06/06 02:55:29;;;;;;;14.43;12.93;;;13.60;99.90;;;;;;5006922;28;20227;-83
2021/06/06 02:58:02;;;;;;;14.47;12.97;;;13.50;99.90;;;;;;4999992;28;20200;-83
2021/06/06 03:00:33;;;;;;;15.30;12.63;;;13.60;99.90;;;;;;5013571;28;20180;-84
2021/06/06 03:03:07;;;;;;;15.40;12.70;;;13.60;99.90;;;;;;5009901;28;20560;-84
2021/06/06 03:05:36;;;;;;;13.37;12.07;;;13.70;99.90;;;;;;5007882;28;20200;-82
2021/06/06 03:08:07;;;;;;;15.53;12.97;;;13.60;99.90;;;;;;4986192;28;20203;-83
2021/06/06 03:10:39;;;;;;;13.87;12.47;;;13.70;99.90;;;;;;4993449;28;20483;-83
2021/06/06 03:13:11;;;;;;;14.57;13.07;;;13.70;99.90;;;;;;5000853;28;20207;-85
2021/06/06 03:15:42;;;;;;;13.90;12.50;;;13.70;99.90;;;;;;4991605;28;20286;-83
2021/06/06 03:18:11;;;;;;;15.03;12.90;;;13.60;99.90;;;;;;4990878;28;20212;-83
2021/06/06 03:20:42;;;;;;;14.50;12.60;;;13.70;99.90;;;;;;4987533;28;20594;-82
2021/06/06 03:23:13;;;;;;;13.97;12.47;;;13.80;99.90;;;;;;4990446;28;20203;-82
2021/06/06 03:25:47;;;;;;;14.47;12.40;;;13.80;99.90;;;;;;4987088;28;20211;-84
2021/06/06 03:28:18;;;;;;;13.37;12.07;;;13.80;99.90;;;;;;4994602;28;20257;-83
2021/06/06 03:30:48;;;;;;;11.53;10.33;;;14.00;99.90;;;;;;4992855;28;20227;-83
2021/06/06 03:33:19;;;;;;;11.60;10.17;;;14.10;99.90;;;;;;4993727;28;20204;-83
2021/06/06 03:35:47;;;;;;;14.30;10.43;;;14.20;99.90;;;;;;4995033;28;20601;-82
2021/06/06 03:38:16;;;;;;;12.67;11.33;;;14.30;99.90;;;;;;4987471;28;20203;-83
2021/06/06 03:40:47;;;;;;;12.90;11.60;;;14.30;99.90;;;;;;4987011;28;20236;-83
2021/06/06 03:43:17;;;;;;;12.13;10.93;;;14.40;99.90;;;;;;4990243;28;20221;-84
2021/06/06 03:45:46;;;;;;;12.07;10.97;;;14.40;99.90;;;;;;4983383;28;20211;-83
2021/06/06 03:48:14;;;;;;;12.00;10.90;;;14.40;99.90;;;;;;4991059;28;20238;-83
2021/06/06 03:50:43;;;;;;;13.27;10.40;;;14.40;99.90;;;;;;4986960;28;20317;-84
2021/06/06 03:53:12;;;;;;;14.17;11.07;;;14.50;99.90;;;;;;4990510;28;20697;-84
2021/06/06 03:55:40;;;;;;;11.83;10.57;;;14.60;99.90;;;;;;4988498;28;20210;-84
2021/06/06 03:58:09;;;;;;;14.17;10.93;;;14.60;99.50;;;;;;4995339;28;20280;-83
2021/06/06 04:00:40;;;;;;;11.70;10.60;;;14.70;98.60;;;;;;5003340;28;20208;-83
2021/06/06 04:03:10;;;;;;;12.30;11.10;;;14.70;99.80;;;;;;4987275;28;20590;-84
2021/06/06 04:05:38;;;;;;;12.90;10.30;;;14.70;99.90;;;;;;4990801;28;20686;-84
2021/06/06 04:08:08;;;;;;;12.57;10.77;;;14.80;99.50;;;;;;4984503;28;20211;-84
2021/06/06 04:10:36;;;;;;;11.17;10.07;;;14.80;98.60;;;;;;4989257;28;20362;-83
2021/06/06 04:13:05;;;;;;;10.97;9.87;;;14.90;98.70;;;;;;4988609;28;20765;-84
2021/06/06 04:15:35;;;;;;;9.90;8.90;;;15.00;98.20;;;;;;4988992;28;20295;-84
2021/06/06 04:18:11;;;;;;;11.93;10.10;;;15.10;96.10;;;;;;4988287;28;20212;-83
2021/06/06 04:20:40;;;;;;;10.83;9.33;;;15.20;95.70;;;;;;4980854;28;20211;-85
2021/06/06 04:23:08;;;;;;;10.90;9.80;;;15.20;95.80;;;;;;5005153;28;20401;-86
2021/06/06 04:25:37;;;;;;;11.73;9.53;;;15.30;95.00;;;;;;5010892;28;20205;-86
2021/06/06 04:28:07;;;;;;;11.13;9.27;;;15.40;94.00;;;;;;4997219;28;20274;-84
2021/06/06 04:30:36;;;;;;;11.07;10.03;;;15.50;94.40;;;;;;4991515;28;20227;-83
2021/06/06 04:33:07;;;;;;;10.23;9.23;;;15.60;93.90;;;;;;4985928;28;20614;-84
2021/06/06 04:35:36;;;;;;;10.90;9.50;;;15.60;93.50;;;;;;4989146;28;20210;-84
2021/06/06 04:38:05;;;;;;;10.20;9.17;;;15.70;94.00;;;;;;4988923;28;20214;-84
2021/06/06 04:40:33;;;;;;;9.33;8.37;;;15.90;93.60;;;;;;4987112;28;20688;-86
2021/06/06 04:43:02;;;;;;;11.70;9.37;;;16.00;92.30;;;;;;4990901;28;20277;-84
2021/06/06 04:45:30;;;;;;;11.50;9.77;;;16.10;92.70;;;;;;4996265;28;20207;-86
2021/06/06 04:48:09;;;;;;;11.77;9.00;;;16.30;92.70;;;;;;4995632;28;20208;-85
2021/06/06 04:50:37;;;;;;;10.57;9.53;;;16.30;92.40;;;;;;4998143;28;20228;-86
2021/06/06 04:53:05;;;;;;;9.93;8.77;;;16.40;92.60;;;;;;4995038;28;20234;-85
2021/06/06 04:55:33;;;;;;;9.70;8.70;;;16.50;92.50;;;;;;4990481;28;20270;-85
2021/06/06 04:58:02;;;;;;;10.27;8.70;;;16.60;92.20;;;;;;4984417;28;20579;-86
2021/06/06 05:00:32;;;;;;;10.10;8.80;;;16.70;91.50;;;;;;4989925;28;20461;-85
2021/06/06 05:03:00;;;;;;;10.83;9.30;;;16.70;91.70;;;;;;4988667;28;20224;-84
2021/06/06 05:05:30;;;;;;;10.63;8.90;;;16.80;91.40;;;;;;4996769;28;20203;-84
2021/06/06 05:08:00;;;;;;;10.67;8.90;;;16.80;91.40;;;;;;4994580;28;20230;-86
2021/06/06 05:10:30;;;;;;;11.40;9.53;;;16.90;90.80;;;;;;4987017;28;20204;-86
2021/06/06 05:12:58;;;;;;;9.63;8.63;;;16.90;91.70;;;;;;4987076;28;20662;-84
2021/06/06 05:15:27;;;;;;;9.70;8.70;;;16.90;91.20;;;;;;4986334;28;20211;-85
2021/06/06 05:17:55;;;;;;;10.87;8.73;;;17.00;91.00;;;;;;4989702;28;20214;-86
2021/06/06 05:20:28;;;;;;;9.23;8.43;;;17.10;91.30;;;;;;4988922;28;20705;-84
2021/06/06 05:22:57;;;;;;;10.43;9.30;;;17.10;90.80;;;;;;4985831;28;20220;-83
2021/06/06 05:25:26;;;;;;;10.60;9.10;;;17.20;91.00;;;;;;4990254;28;20204;-83
2021/06/06 05:27:54;;;;;;;10.30;9.00;;;17.20;90.80;;;;;;4988272;28;20227;-85
2021/06/06 05:30:25;;;;;;;9.43;8.43;;;17.30;90.30;;;;;;4988553;28;20207;-84
2021/06/06 05:32:54;;;;;;;9.97;8.97;;;17.30;90.50;;;;;;4992171;28;20683;-84
2021/06/06 05:35:25;;;;;;;9.83;8.77;;;17.40;90.80;;;;;;4989936;28;20204;-84
2021/06/06 05:37:54;;;;;;;10.20;8.70;;;17.50;91.20;;;;;;4988656;28;20211;-84
2021/06/06 05:40:25;;;;;;;9.53;8.50;;;17.80;90.50;;;;;;4985309;28;20214;-84
2021/06/06 05:42:53;;;;;;;11.67;8.93;;;18.00;90.20;;;;;;4995329;28;20290;-86
2021/06/06 05:45:24;;;;;;;9.20;8.40;;;18.20;90.00;;;;;;4999348;28;20200;-83
2021/06/06 05:47:52;;;;;;;9.60;8.70;;;18.40;90.10;;;;;;4989605;28;20243;-81
2021/06/06 05:50:24;;;;;;;10.67;9.03;;;18.50;88.80;;;;;;4987048;28;20296;-85
2021/06/06 05:52:52;;;;;;;9.23;8.20;;;18.60;89.20;;;;;;4987318;28;20227;-83
2021/06/06 05:55:21;;;;;;;11.53;9.53;;;18.70;88.20;;;;;;4986177;28;20242;-83
2021/06/06 05:57:55;;;;;;;10.20;9.17;;;18.90;88.30;;;;;;4984930;28;20376;-83
2021/06/06 06:00:28;;;;;;;10.37;8.47;;;19.00;89.20;;;;;;4990485;28;20203;-86
2021/06/06 06:02:55;;;;;;;9.37;8.40;;;19.10;86.20;;;;;;4987105;28;20525;-84
2021/06/06 06:05:24;;;;;;;9.47;8.47;;;19.10;87.40;;;;;;4994508;28;20280;-84
2021/06/06 06:07:51;;;;;;;9.57;8.40;;;19.20;87.10;;;;;;4996259;28;20270;-83
2021/06/06 06:10:25;;;;;;;10.43;8.80;;;19.10;87.60;;;;;;4988765;28;20277;-82
2021/06/06 06:12:54;;;;;;;10.53;8.67;;;19.20;88.40;;;;;;4992457;28;20231;-84
2021/06/06 06:15:22;;;;;;;10.17;9.13;;;19.40;88.00;;;;;;4990108;28;20204;-86
2021/06/06 06:17:50;;;;;;;9.40;8.50;;;19.50;87.00;;;;;;4987169;28;20553;-84
2021/06/06 06:20:20;;;;;;;9.63;8.77;;;19.40;87.20;;;;;;4987234;28;20216;-83
2021/06/06 06:22:49;;;;;;;9.13;8.23;;;19.50;86.70;;;;;;4987775;28;20265;-84
2021/06/06 06:25:18;;;;;;;10.17;9.07;;;19.60;87.30;;;;;;4986636;28;20207;-85
2021/06/06 06:27:46;;;;;;;9.97;8.47;;;19.60;86.30;;;;;;4987071;28;20232;-84
2021/06/06 06:30:20;;;;;;;9.33;8.30;;;19.70;86.50;;;;;;4988901;28;20586;-85
2021/06/06 06:32:48;;;;;;;9.87;8.83;;;19.80;86.60;;;;;;5006412;28;20230;-85
2021/06/06 06:35:16;;;;;;;10.80;8.63;;;19.90;85.70;;;;;;5000835;28;21027;-83
2021/06/06 06:37:44;;;;;;;9.03;8.23;;;20.10;85.20;;;;;;4990451;28;20291;-83
2021/06/06 06:40:14;;;;;;;11.10;8.17;;;20.30;84.80;;;;;;4993860;28;20204;-84
2021/06/06 06:42:44;;;;;;;10.50;7.87;;;20.40;84.50;;;;;;4997368;28;20216;-83
2021/06/06 06:45:17;;;;;;;9.87;8.07;;;20.50;84.50;;;;;;4987179;28;20210;-84
2021/06/06 06:47:45;;;;;;;8.73;7.83;;;20.60;84.30;;;;;;4985564;28;20504;-84
2021/06/06 06:50:15;;;;;;;8.63;7.80;;;20.70;83.40;;;;;;4989400;28;20637;-83
2021/06/06 06:52:42;;;;;;;8.40;7.50;;;20.60;83.10;;;;;;4993339;28;20310;-82
2021/06/06 06:55:14;;;;;;;8.27;7.57;;;20.70;83.50;;;;;;5000371;28;20239;-83
2021/06/06 06:57:43;;;;;;;8.87;7.97;;;20.80;83.90;;;;;;5000125;28;20208;-82
2021/06/06 07:00:17;;;;;;;8.23;7.13;;;20.80;83.30;;;;;;4995126;28;20230;-84
2021/06/06 07:03:01;;;;;;;8.63;7.73;;;20.90;83.60;;;;;;5015419;28;20211;-84
2021/06/06 07:05:30;;;;;;;8.20;7.50;;;21.10;84.20;;;;;;5008734;28;20214;-84
2021/06/06 07:07:58;;;;;;;9.20;7.22;;;21.40;83.60;;;;;;4988744;28;20634;-82
2021/06/06 07:10:30;;;;;;;8.68;7.95;;;21.70;83.30;;;;;;4991638;28;20857;-83
2021/06/06 07:12:58;;;;;;;8.68;7.78;;;21.80;82.70;;;;;;4991121;28;20227;-84
2021/06/06 07:15:28;;;;;;;8.07;7.38;;;21.80;83.10;;;;;;4996269;28;20215;-82
2021/06/06 07:17:56;;;;;;;8.50;7.70;;;21.80;82.30;;;;;;4993607;28;20214;-85
2021/06/06 07:20:30;;;;;;;8.55;7.75;;;22.00;82.20;;;;;;4995257;28;20215;-84
2021/06/06 07:23:01;;;;;;;8.68;7.72;;;22.00;81.80;;;;;;4996114;28;20199;-84
2021/06/06 07:25:29;;;;;;;9.13;7.13;;;22.10;81.40;;;;;;4992045;28;20203;-84
2021/06/06 07:27:57;;;;;;;9.00;7.70;;;22.10;81.70;;;;;;5000476;28;20207;-83
2021/06/06 07:30:34;;;;;;;8.30;7.30;;;22.10;81.60;;;;;;4989180;28;20610;-83
2021/06/06 07:33:03;;;;;;;9.55;7.18;;;22.20;81.40;;;;;;4990247;28;20228;-84
2021/06/06 07:35:33;;;;;;;7.70;6.93;;;22.30;81.00;;;;;;4986575;28;20290;-85
2021/06/06 07:38:03;;;;;;;7.45;6.80;;;22.40;81.00;;;;;;4991530;28;20215;-83
2021/06/06 07:40:34;;;;;;;7.82;7.07;;;22.30;80.80;;;;;;4990064;28;20207;-82
2021/06/06 07:43:03;;;;;;;9.80;6.88;;;22.30;80.80;;;;;;4986516;28;20208;-82
2021/06/06 07:45:33;;;;;;;8.10;6.70;;;22.30;81.40;;;;;;4990351;28;20199;-83
2021/06/06 07:48:01;;;;;;;7.03;6.20;;;22.30;80.90;;;;;;4986611;28;20565;-83
2021/06/06 07:50:33;;;;;;;7.03;5.93;;;22.30;80.40;;;;;;4990854;28;20266;-82
2021/06/06 07:53:01;;;;;;;6.88;5.53;;;22.40;81.00;;;;;;4992519;28;20234;-83
2021/06/06 07:55:30;;;;;;;7.72;5.95;;;22.60;81.00;;;;;;4985786;28;20607;-83
2021/06/06 07:57:58;;;;;;;6.97;5.65;;;22.70;80.70;;;;;;4991100;28;20216;-82
2021/06/06 08:00:30;;;;;;;6.32;5.70;;;22.80;79.50;;;;;;4989009;28;20510;-83
2021/06/06 08:03:00;;;;;;;7.53;6.10;;;22.90;80.30;;;;;;4999899;28;20204;-83
2021/06/06 08:05:28;;;;;;;8.05;6.20;;;23.10;79.90;;;;;;4985368;28;20286;-82
2021/06/06 08:07:56;;;;;;;6.18;5.57;;;23.20;79.50;;;;;;4993184;28;20528;-83
2021/06/06 08:10:32;;;;;;;6.03;5.25;;;23.20;79.60;;;;;;4987798;28;20212;-84
2021/06/06 08:13:00;;;;;;;5.68;5.18;;;23.20;77.90;;;;;;4989465;28;20335;-83
2021/06/06 08:15:32;;;;;;;7.20;5.40;;;23.40;78.50;;;;;;4988680;28;20708;-83
2021/06/06 08:18:06;;;;;;;7.68;5.43;;;23.40;77.80;;;;;;4987321;28;20200;-81
2021/06/06 08:20:38;;;;;;;6.03;5.00;;;23.30;77.00;;;;;;4985632;28;20274;-85
2021/06/06 08:23:08;;;;;;;7.20;5.25;;;23.20;77.10;;;;;;4987419;28;20638;-84
2021/06/06 08:25:38;;;;;;;5.43;4.43;;;23.20;78.30;;;;;;4988799;28;20208;-85
2021/06/06 08:28:06;;;;;;;5.40;4.82;;;23.20;78.20;;;;;;4984635;28;20204;-83
2021/06/06 08:30:36;;;;;;;5.70;4.63;;;23.30;77.10;;;;;;4987560;28;20262;-84
2021/06/06 08:33:07;;;;;;;10.27;4.88;;;23.40;76.10;;;;;;4999395;28;20223;-83
2021/06/06 08:35:51;;;;;;;5.50;4.93;;;23.40;75.80;;;;;;5006208;28;20203;-83
2021/06/06 08:38:20;;;;;;;6.07;4.68;;;23.60;75.90;;;;;;4998578;28;20255;-82
2021/06/06 08:40:54;;;;;;;6.18;5.00;;;23.40;76.60;;;;;;5010943;28;20275;-81
2021/06/06 08:43:34;;;;;;;5.53;4.18;;;23.40;76.00;;;;;;5002452;28;20252;-83
2021/06/06 08:46:02;;;;;;;4.85;4.40;;;23.40;76.20;;;;;;5007211;28;20298;-82
2021/06/06 08:48:32;;;;;;;4.88;4.38;;;23.30;75.70;;;;;;5001124;28;20209;-83
2021/06/06 08:51:12;;;;;;;5.15;4.65;;;23.30;75.90;;;;;;5002596;28;20267;-82
2021/06/06 08:53:49;;;;;;;8.90;4.57;;;23.10;75.90;;;;;;4997692;28;20227;-82
2021/06/06 08:56:22;;;;;;;4.75;4.35;;;23.20;75.80;;;;;;5004874;28;20238;-81
2021/06/06 08:58:56;;;;;;;5.55;4.10;;;23.10;75.40;;;;;;5007589;28;20204;-83
2021/06/06 09:01:31;;;;;;;7.13;4.28;;;22.90;75.60;;;;;;5003613;28;20206;-82
2021/06/06 09:04:04;;;;;;;5.65;3.88;;;23.00;75.60;;;;;;5002695;28;20230;-82
2021/06/06 09:06:40;;;;;;;6.03;4.25;;;23.30;75.00;;;;;;5006226;28;20183;-83
2021/06/06 09:09:11;;;;;;;6.65;4.20;;;23.60;74.00;;;;;;5007393;28;20222;-84
2021/06/06 09:11:39;;;;;;;4.22;3.88;;;23.80;74.20;;;;;;5003374;28;20200;-82
2021/06/06 09:14:07;;;;;;;6.22;3.20;;;24.00;73.80;;;;;;5003067;28;20250;-85
2021/06/06 09:16:52;;;;;;;6.00;3.10;;;23.80;73.20;;;;;;4996135;28;20460;-83
2021/06/06 09:19:23;;;;;;;3.75;3.17;;;23.70;73.20;;;;;;4994469;28;20212;-84
2021/06/06 09:21:58;;;;;;;7.88;3.35;;;23.80;72.50;;;;;;5001001;28;20200;-81
2021/06/06 09:24:34;;;;;;;3.53;3.22;;;23.90;72.40;;;;;;5011039;28;20190;-83
2021/06/06 09:27:13;;;;;;;3.45;3.15;;;24.10;71.70;;;;;;5012078;28;20187;-84
2021/06/06 09:29:42;;;;;;;5.15;3.63;;;24.30;71.80;;;;;;5009317;28;20200;-84
2021/06/06 09:32:14;;;;;;;5.10;3.15;;;24.30;70.10;;;;;;5007918;28;20227;-82
2021/06/06 09:34:55;;;;;;;5.75;3.85;;;24.30;70.40;;;;;;5008359;28;20280;-82
2021/06/06 09:37:25;;;;;;;5.32;3.28;;;24.60;72.10;;;;;;5001632;28;20227;-84
2021/06/06 09:40:00;;;;;;;7.68;3.67;;;24.50;70.70;;;;;;5009069;28;20211;-85
2021/06/06 09:42:42;;;;;;;6.90;4.25;;;24.50;71.20;;;;;;5006493;28;20302;-83
2021/06/06 09:45:20;;;;;;;6.50;3.95;;;24.20;71.10;;;;;;4999128;28;20552;-82
2021/06/06 09:48:08;;;;;;;4.00;3.58;;;24.10;72.20;;;;;;5003444;28;20212;-83
2021/06/06 09:50:41;;;;;;;4.78;4.05;;;24.10;72.50;;;;;;5004514;28;20317;-81
2021/06/06 09:53:14;;;;;;;6.15;3.22;;;24.00;70.60;;;;;;5003351;28;20269;-82
2021/06/06 09:55:44;;;;;;;5.82;3.60;;;24.00;69.50;;;;;;4999817;28;20285;-82
2021/06/06 09:58:15;;;;;;;3.75;3.45;;;24.00;70.50;;;;;;4999991;28;20212;-82
2021/06/06 10:00:46;;;;;;;5.05;3.85;;;24.00;70.50;;;;;;5003463;28;20689;-82
2021/06/06 10:03:27;;;;;;;5.05;3.67;;;24.00;70.90;;;;;;4995768;28;20230;-84
2021/06/06 10:06:16;;;;;;;3.53;3.22;;;23.70;69.90;;;;;;4998971;28;20226;-86
2021/06/06 10:08:45;;;;;;;6.13;3.45;;;23.80;70.30;;;;;;4994748;28;20271;-80
2021/06/06 10:11:15;;;;;;;3.92;3.28;;;23.90;69.60;;;;;;5014948;28;20203;-83
2021/06/06 10:13:47;;;;;;;3.90;3.10;;;23.90;68.70;;;;;;5004552;28;20231;-86
2021/06/06 10:16:19;;;;;;;4.72;3.50;;;24.00;67.60;;;;;;5002679;28;20211;-82
2021/06/06 10:18:57;;;;;;;5.97;3.25;;;24.10;67.60;;;;;;4997284;28;20666;-83
2021/06/06 10:21:32;;;;;;;7.53;3.78;;;24.30;67.70;;;;;;4998473;28;20208;-83
2021/06/06 10:24:06;;;;;;;6.22;3.20;;;24.20;67.50;;;;;;5004742;28;20192;-82
2021/06/06 10:26:39;;;;;;;3.85;3.50;;;24.40;67.20;;;;;;5000295;28;20203;-83
2021/06/06 10:29:11;;;;;;;3.80;3.50;;;24.70;67.40;;;;;;5001264;28;20208;-84
2021/06/06 10:31:42;;;;;;;6.47;3.90;;;24.50;67.80;;;;;;4998243;28;20223;-83
2021/06/06 10:34:19;;;;;;;4.95;3.38;;;24.50;67.80;;;;;;4991205;28;20616;-82
2021/06/06 10:36:50;;;;;;;3.40;3.10;;;24.40;67.20;;;;;;4994496;28;20231;-84
2021/06/06 10:39:23;;;;;;;3.95;3.30;;;24.50;65.80;;;;;;4986110;28;20286;-84
2021/06/06 10:41:56;;;;;;;3.60;3.30;;;24.50;67.50;;;;;;4994155;28;20204;-85
2021/06/06 10:44:28;;;;;;;4.13;3.03;;;24.60;66.10;;;;;;4991381;28;20271;-83
2021/06/06 10:47:01;;;;;;;4.60;3.70;;;24.30;66.10;;;;;;5006946;28;20207;-82
2021/06/06 10:49:35;;;;;;;3.45;3.13;;;24.50;64.90;;;;;;4998685;28;20204;-84
2021/06/06 10:52:08;;;;;;;6.13;3.10;;;24.50;66.80;;;;;;5002664;28;20290;-84
2021/06/06 10:54:39;;;;;;;3.72;2.88;;;24.70;66.00;;;;;;5006043;28;20231;-83
2021/06/06 10:57:11;;;;;;;4.05;3.28;;;24.60;64.80;;;;;;4988541;28;20227;-84
2021/06/06 10:59:45;;;;;;;3.40;2.90;;;24.30;65.00;;;;;;4994136;28;20207;-83
2021/06/06 11:02:28;;;;;;;3.58;3.25;;;24.10;64.60;;;;;;4992964;28;20525;-82
2021/06/06 11:04:57;;;;;;;3.78;2.85;;;24.10;65.30;;;;;;4994278;28;20228;-84
2021/06/06 11:07:40;;;;;;;3.35;3.00;;;24.20;65.00;;;;;;4992220;28;20261;-81
2021/06/06 11:10:33;;;;;;;4.78;2.97;;;24.10;64.80;;;;;;4991991;28;20340;-84
2021/06/06 11:13:29;;;;;;;3.42;3.05;;;24.20;63.00;;;;;;4994862;28;20780;-85
2021/06/06 11:16:00;;;;;;;5.55;2.95;;;24.50;63.60;;;;;;5010268;28;20192;-84
2021/06/06 11:18:28;;;;;;;3.95;2.55;;;24.60;63.20;;;;;;5004261;28;20204;-84
2021/06/06 11:20:59;;;;;;;5.53;3.20;;;24.50;62.10;;;;;;4997494;28;20211;-83
2021/06/06 11:23:37;;;;;;;4.03;2.88;;;24.70;61.90;;;;;;4996212;28;20195;-82
2021/06/06 11:26:19;;;;;;;5.93;2.80;;;24.70;61.30;;;;;;4992478;28;20333;-84
2021/06/06 11:28:48;;;;;;;4.93;3.03;;;24.70;61.70;;;;;;4987557;28;20238;-85
2021/06/06 11:31:25;;;;;;;3.28;2.97;;;24.60;62.30;;;;;;4993068;28;20654;-84
2021/06/06 11:34:01;;;;;;;3.92;2.95;;;24.70;63.00;;;;;;5002124;28;20680;-84
2021/06/06 11:36:32;;;;;;;4.20;3.13;;;24.70;62.50;;;;;;4990636;28;20302;-87
2021/06/06 11:39:16;;;;;;;3.72;3.40;;;24.70;62.40;;;;;;4994126;28;20207;-85
2021/06/06 11:41:45;;;;;;;5.18;2.92;;;24.50;61.80;;;;;;4998354;28;20746;-83
2021/06/06 11:44:21;;;;;;;4.53;3.10;;;24.60;62.40;;;;;;5010800;28;20263;-82
2021/06/06 11:46:54;;;;;;;2.83;2.63;;;24.40;61.30;;;;;;4999131;28;20218;-83
2021/06/06 11:49:33;;;;;;;4.38;2.67;;;24.30;60.20;;;;;;5014081;28;20204;-85
2021/06/06 11:52:10;;;;;;;3.38;3.00;;;24.20;60.50;;;;;;5007897;28;20531;-84
2021/06/06 11:54:47;;;;;;;5.35;3.38;;;24.30;61.40;;;;;;5007743;28;20223;-84
2021/06/06 11:57:23;;;;;;;3.30;3.00;;;24.60;62.30;;;;;;5003011;28;20278;-82
2021/06/06 11:59:55;;;;;;;3.40;2.85;;;24.70;62.00;;;;;;5008047;28;20281;-85
2021/06/06 12:02:27;;;;;;;3.88;3.22;;;24.70;61.50;;;;;;5014467;28;20204;-85
2021/06/06 12:04:57;;;;;;;4.55;3.20;;;24.60;61.20;;;;;;5003947;28;20223;-83
2021/06/06 12:07:27;;;;;;;3.22;3.00;;;24.50;62.00;;;;;;5003398;28;20208;-85
2021/06/06 12:09:59;;;;;;;4.55;2.85;;;24.30;61.00;;;;;;5002236;28;20306;-82
2021/06/06 12:12:29;;;;;;;3.60;2.90;;;24.40;61.80;;;;;;5004719;28;20475;-82
2021/06/06 12:15:03;;;;;;;3.47;3.17;;;24.60;61.20;;;;;;5009201;28;20705;-82
2021/06/06 12:17:32;;;;;;;5.95;3.10;;;24.60;61.40;;;;;;5006992;28;20199;-83
2021/06/06 12:20:03;;;;;;;3.42;2.72;;;24.90;60.60;;;;;;5011451;28;20223;-84
2021/06/06 12:22:34;;;;;;;4.30;3.22;;;25.00;60.60;;;;;;5006783;28;20272;-85
2021/06/06 12:25:21;;;;;;;4.55;3.10;;;25.20;61.00;;;;;;5006335;28;20207;-84
2021/06/06 12:27:52;;;;;;;3.63;3.10;;;25.30;61.30;;;;;;4998169;28;20808;-84
2021/06/06 12:30:26;;;;;;;3.83;2.85;;;25.30;61.20;;;;;;5001979;28;20231;-83
2021/06/06 12:32:56;;;;;;;4.03;3.08;;;25.40;59.70;;;;;;5000762;28;20616;-85
2021/06/06 12:35:30;;;;;;;3.40;2.83;;;25.50;60.60;;;;;;4981209;28;20207;-85
2021/06/06 12:38:01;;;;;;;3.00;2.72;;;25.70;60.00;;;;;;5002689;28;20406;-85
2021/06/06 12:40:35;;;;;;;3.90;2.78;;;25.70;58.80;;;;;;4991357;28;20786;-82
2021/06/06 12:43:05;;;;;;;4.32;2.90;;;25.50;59.60;;;;;;4997272;28;20279;-83
2021/06/06 12:45:42;;;;;;;4.82;3.05;;;25.70;57.80;;;;;;4992521;28;20479;-85
2021/06/06 12:48:13;;;;;;;3.20;2.58;;;26.10;58.60;;;;;;5011497;28;20199;-83
2021/06/06 12:50:44;;;;;;;3.63;2.70;;;26.50;60.80;;;;;;4997934;28;20577;-83
2021/06/06 12:53:26;;;;;;;3.92;3.00;;;27.00;58.30;;;;;;4989589;28;20333;-84
2021/06/06 12:56:11;;;;;;;3.45;2.85;;;27.20;58.10;;;;;;4988607;28;20367;-83
2021/06/06 12:58:40;;;;;;;3.28;2.97;;;26.50;59.60;;;;;;5004321;28;20214;-84
2021/06/06 13:01:13;;;;;;;6.32;3.28;;;26.30;60.40;;;;;;5013878;28;20200;-85